Accueil
METAR-TAF:

METAR-TAF

Aéroports :

Boscombe Down, Angleterre

latitude: 51-10N, longitude: 001-45W, altitude: 124 m

Observation

Le bulletin a été fait il y a 21 minutes, à 17:50 UTC
Vent 6 kt de nord/nord-ouest
Température 12°C
Humidité 54%
Pression 1033 hPa
Visibilité 10 km ou plus
Quelques nuages à une hauteur de 4000 ft

METAR: EGDM 261750Z 33006KT 9999 FEW040 12/03 Q1033 BLU

Heure: 18:11 (18:11 UTC)

Prévision

Le bulletin a été fait il y a 4 heures et 20 minutes, à 13:51 UTC
Prévision valable du 26 à 15 UTC au 26 à 19 UTC
Vent 5 kt de nord/nord-ouest
Visibilité 10 km ou plus
Quelques nuages à une hauteur de 3800 ft

TAF: EGDM 261351Z 2615/2619 33005KT 9999 FEW038

Observations et prévisions météorologiques de plus de 4000 aéroports (messages METAR et TAF).

Les stations disponibles sont représentées par des disques jaunes et rouges sur la carte.

Passer la souris dessus pour voir le nom de la station.

Cliquer dessus pour voir les observations et prévisions météorologiques.

Pour changer de carte: cliquez sur les boutons verts avec une croix noire pour zoomer, sur le bouton vert avec un tiret pour effectuer un zoom arrière, ou sur les flèches vertes pour les cartes adjacentes.


METAR-TAF: